Terminal Aerodrome Forecast
Issued by NWS Grand Forks, ND

Home | Current Version | Previous Version | Graphics & Text | Print | Product List | Glossary On
Versions: 1 2 3 4 5 6 7 8 9 10 11 12 13 14 15 16 17 18 19 20 21 22 23 24 25
837
FTUS43 KFGF 270707 AAB
TAFFAR
TAF AMD
KFAR 270707Z 2707/2806 08003KT P6SM SCT100
      TEMPO 2707/2711 3SM BR
     FM271100 00000KT P6SM SCT060=

USA.gov is the U.S. government's official web portal to all federal, state and local government web resources and services.